Atlantic Elm — 9HA3054 — position and weather

sailwx.info

Track history (hours):
 
Tides and Currents Weather Stations Pressure Air Temp Water Temp Dewpoint Dewpoint Depression Visibility Wind Speed Wind Dir Waves Ship Positions

Atlantic Elm

Last reported at 2014-Nov-28 18:20 UTC. Time now 2014-Nov-29 01:16 UTC.
Position N 37°38' E 009°17'.

Length 190 m; draft 12.9 m.

Type: Cargo ship. MMSI: 229081000.

Date/timePositionNaut miles runAvg speedWind from/ knotsBaromVisibWave heightAir tempDewpointWater temp
2014-Nov-28 18:20N 37°38' E 009°17'22411.2
2014-Nov-27 22:20N 37°29' E 004°35'911.7
2014-Nov-27 21:32N 37°28' E 004°23'1211.8
2014-Nov-27 20:32N 37°28' E 004°08'7311.3
2014-Nov-27 14:07N 37°16' E 002°38'38312.0
2014-Nov-26 06:11N 36°00' W 005°10'914.1
2014-Nov-26 05:34N 35°59' W 005°21'  
2014-Nov-23 14:19N 39°19' W 020°05'1512.5
2014-Nov-23 13:08N 39°21' W 020°23'3512.5
2014-Nov-23 10:19N 39°26' W 021°08'13111.8
2014-Nov-22 23:16N 39°44' W 023°57'911.8
2014-Nov-22 22:32N 39°45' W 024°08'1411.9
2014-Nov-22 21:22N 39°47' W 024°26'1011.5
2014-Nov-22 20:32N 39°48' W 024°38'1211.4
2014-Nov-22 19:30N 39°50' W 024°53'11711.8
2014-Nov-22 09:33N 39°59' W 027°25'2711.6
2014-Nov-22 07:15N 40°01' W 028°00'1011.8
2014-Nov-22 06:26N 40°01' W 028°13'1111.8
2014-Nov-22 05:28N 40°02' W 028°27'1111.5
2014-Nov-22 04:33N 40°03' W 028°41'1211.8
2014-Nov-22 03:33N 40°04' W 028°57'9311.3
2014-Nov-21 19:20N 40°05' W 030°58'1011.0
2014-Nov-21 18:22N 40°04' W 031°12'911.1
2014-Nov-21 17:33N 40°04' W 031°24'1111.3
2014-Nov-21 16:33N 40°03' W 031°39'1511.3
2014-Nov-21 15:11N 40°02' W 031°59'  
Track history (hours):
 
Tides and Currents Weather Stations Pressure Air Temp Water Temp Dewpoint Dewpoint Depression Visibility Wind Speed Wind Dir Waves Ship Positions

Atlantic Elm

Last reported at 2014-Nov-28 18:20 UTC. Time now 2014-Nov-29 01:16 UTC.
Position N 37°38' E 009°17'.

Length 190 m; draft 12.9 m.

Type: Cargo ship. MMSI: 229081000.

Date/timePositionNaut miles runAvg speedWind from/ knotsBaromVisibWave heightAir tempDewpointWater temp
2014-Nov-28 18:20N 37°38' E 009°17'22411.2
2014-Nov-27 22:20N 37°29' E 004°35'911.7
2014-Nov-27 21:32N 37°28' E 004°23'1211.8
2014-Nov-27 20:32N 37°28' E 004°08'7311.3
2014-Nov-27 14:07N 37°16' E 002°38'38312.0
2014-Nov-26 06:11N 36°00' W 005°10'914.1
2014-Nov-26 05:34N 35°59' W 005°21'  
2014-Nov-23 14:19N 39°19' W 020°05'1512.5
2014-Nov-23 13:08N 39°21' W 020°23'3512.5
2014-Nov-23 10:19N 39°26' W 021°08'13111.8
2014-Nov-22 23:16N 39°44' W 023°57'911.8
2014-Nov-22 22:32N 39°45' W 024°08'1411.9
2014-Nov-22 21:22N 39°47' W 024°26'1011.5
2014-Nov-22 20:32N 39°48' W 024°38'1211.4
2014-Nov-22 19:30N 39°50' W 024°53'11711.8
2014-Nov-22 09:33N 39°59' W 027°25'2711.6
2014-Nov-22 07:15N 40°01' W 028°00'1011.8
2014-Nov-22 06:26N 40°01' W 028°13'1111.8
2014-Nov-22 05:28N 40°02' W 028°27'1111.5
2014-Nov-22 04:33N 40°03' W 028°41'1211.8
2014-Nov-22 03:33N 40°04' W 028°57'9311.3
2014-Nov-21 19:20N 40°05' W 030°58'1011.0
2014-Nov-21 18:22N 40°04' W 031°12'911.1
2014-Nov-21 17:33N 40°04' W 031°24'1111.3
2014-Nov-21 16:33N 40°03' W 031°39'1511.3
2014-Nov-21 15:11N 40°02' W 031°59'  

Dump ship's entire track history